Latest Weather Observations for Mount Lofty

IDS60901

Issued at 6:31 pm CST Tuesday 25 July 2017 (issued every 10 minutes, with the page automatically refreshed every 10 minutes)

About weather observations | Map of Adelaide area stations | Latest observations for Adelaide area | Other Formats
Station Details ID: 023842 Name: MOUNT LOFTY Lat: -34.98 Lon: 138.71 Height: 685.0 m
Data from the previous 72 hours. | See also: Recent months at Mount Lofty
Date/Time
CST
Temp
°C
App
Temp
°C
Dew
Point
°C
Rel
Hum
%
Delta-T
°C
Wind Press
QNH
hPa
Press
MSL
hPa
Rain since
9am
mm
Dir  Spd
km/h
Gust
km/h
Spd
kts
Gust
kts
25/06:30pm 9.2 5.4 8.9 98 0.2 WNW 19 30 10 16 - - 0.0
25/06:00pm 9.5 6.1 9.2 98 0.2 WNW 17 30 9 16 - - 0.0
25/05:30pm 9.4 5.6 9.1 98 0.2 WNW 19 30 10 16 - - 0.0
25/05:00pm 9.0 5.5 8.7 98 0.2 WNW 17 35 9 19 - - 0.0
25/04:30pm 9.1 5.6 8.8 98 0.2 WNW 17 30 9 16 - - 0.0
25/04:00pm 9.2 5.4 8.9 98 0.2 WNW 19 37 10 20 - - 0.0
25/03:30pm 9.2 5.1 8.7 97 0.3 WNW 20 39 11 21 - - 0.0
25/03:00pm 9.3 5.4 8.8 97 0.3 WNW 19 35 10 19 - - 0.0
25/02:30pm 9.3 5.5 9.0 98 0.2 WNW 19 43 10 23 - - 0.0
25/02:00pm 9.1 6.0 8.8 98 0.2 WNW 15 32 8 17 - - 0.0
25/01:30pm 9.4 6.0 9.1 98 0.2 WNW 17 32 9 17 - - 0.0
25/01:00pm 9.4 6.4 9.1 98 0.2 W 15 33 8 18 - - 0.0
25/12:30pm 9.3 6.2 9.0 98 0.2 WNW 15 30 8 16 - - 0.0
25/12:00pm 9.0 5.9 8.7 98 0.2 WNW 15 28 8 15 - - 0.0
25/11:30am 8.3 5.0 8.0 98 0.1 WNW 15 24 8 13 - - 0.0
25/11:00am 7.9 4.5 7.5 97 0.2 WNW 15 22 8 12 - - 0.0
25/10:30am 7.8 4.3 7.4 97 0.2 WNW 15 22 8 12 - - 0.0
25/10:00am 7.8 4.0 7.4 97 0.2 WNW 17 26 9 14 - - 0.0
25/09:30am 8.4 4.7 8.0 97 0.2 WNW 17 26 9 14 - - 0.0
25/09:00am 8.1 4.3 7.7 97 0.2 WNW 17 26 9 14 - - 0.0
25/08:30am 7.8 3.8 6.7 93 0.5 WNW 17 30 9 16 - - 0.0
25/08:00am 7.3 3.1 5.8 90 0.7 WNW 17 26 9 14 - - 0.0
25/07:30am 7.0 2.2 4.8 86 1.0 WNW 19 28 10 15 - - 0.0
25/07:00am 7.3 2.4 4.1 80 1.4 WNW 19 28 10 15 - - 0.0
25/06:30am 7.5 2.6 3.9 78 1.6 WNW 19 30 10 16 - - 0.0
25/06:00am 7.7 2.5 3.7 76 1.8 WNW 20 35 11 19 - - 0.0
25/05:30am 8.1 2.9 3.6 73 2.0 WNW 20 32 11 17 - - 0.0
25/05:00am 8.3 3.3 3.6 72 2.1 NW 19 30 10 16 - - 0.0
25/04:30am 8.7 3.5 3.5 70 2.3 NW 20 32 11 17 - - 0.0
25/04:00am 8.8 3.6 3.4 69 2.4 NW 20 37 11 20 - - 0.0
25/03:30am 9.1 3.9 3.5 68 2.5 NW 20 32 11 17 - - 0.0
25/03:00am 9.2 4.0 3.6 68 2.5 NW 20 30 11 16 - - 0.0
25/02:30am 9.4 4.2 3.6 67 2.6 WNW 20 37 11 20 - - 0.0
25/02:00am 10.7 5.5 3.3 60 3.4 WNW 20 32 11 17 - - 0.0
25/01:30am 11.3 6.1 3.6 59 3.5 NW 20 39 11 21 - - 0.0
25/01:00am 11.3 6.1 3.3 58 3.7 NW 20 32 11 17 - - 0.0
25/12:30am 11.5 6.5 3.5 58 3.7 NW 19 39 10 21 - - 0.0
25/12:00am 11.6 6.7 4.1 60 3.5 NW 19 28 10 15 - - 0.0
 
Date/Time
CST
Temp
°C
App
Temp
°C
Dew
Point
°C
Rel
Hum
%
Delta-T
°C
Wind Press
QNH
hPa
Press
MSL
hPa
Rain since
9am
mm
Dir  Spd
km/h
Gust
km/h
Spd
kts
Gust
kts
24/11:30pm 12.1 7.3 4.6 60 3.6 NW 19 39 10 21 - - 0.0
24/11:00pm 12.3 7.4 5.0 61 3.5 NW 20 37 11 20 - - 0.0
24/10:30pm 12.4 8.1 5.1 61 3.5 NW 17 30 9 16 - - 0.0
24/10:00pm 12.2 7.9 5.4 63 3.3 NW 17 30 9 16 - - 0.0
24/09:30pm 12.0 8.0 5.0 62 3.3 NW 15 28 8 15 - - 0.0
24/09:00pm 11.6 8.0 4.8 63 3.2 NW 13 20 7 11 - - 0.0
24/08:30pm 11.3 7.9 5.8 69 2.7 NW 13 20 7 11 - - 0.0
24/08:00pm 11.1 7.3 6.0 71 2.5 NW 15 22 8 12 - - 0.0
24/07:30pm 10.9 7.5 6.1 72 2.3 NW 13 20 7 11 - - 0.0
24/07:00pm 10.8 7.5 6.2 73 2.2 NW 13 19 7 10 - - 0.0
24/06:30pm 10.6 7.6 6.0 73 2.2 WNW 11 17 6 9 - - 0.0
24/06:00pm 10.5 7.1 5.9 73 2.2 WNW 13 20 7 11 - - 0.0
24/05:30pm 10.4 7.4 6.2 75 2.0 WNW 11 17 6 9 - - 0.0
24/05:00pm 11.3 8.3 6.2 71 2.5 WNW 11 17 6 9 - - 0.0
24/04:30pm 12.1 8.4 6.2 67 2.9 WNW 15 28 8 15 - - 0.0
24/04:00pm 12.4 9.0 5.8 64 3.2 WNW 13 26 7 14 - - 0.0
24/03:30pm 12.4 9.0 6.0 65 3.1 WNW 13 22 7 12 - - 0.0
24/03:00pm 12.4 9.3 7.1 70 2.7 WNW 13 20 7 11 - - 0.0
24/02:30pm 11.9 8.2 6.4 69 2.7 WNW 15 30 8 16 - - 0.0
24/02:00pm 11.1 7.4 7.8 80 1.7 WNW 17 28 9 15 - - 0.0
24/01:30pm 10.3 7.0 9.4 94 0.5 WNW 17 32 9 17 - - 0.0
24/01:00pm 10.7 8.2 9.6 93 0.6 NW 13 24 7 13 - - 0.0
24/12:30pm 10.1 7.5 9.3 95 0.4 NW 13 26 7 14 - - 0.0
24/12:00pm 9.0 6.6 8.6 97 0.2 NW 11 19 6 10 - - 0.0
24/11:30am 8.6 5.7 8.3 98 0.2 NW 13 24 7 13 - - 0.0
24/11:00am 8.3 5.4 8.0 98 0.1 NNW 13 20 7 11 - - 0.0
24/10:30am 8.2 5.6 7.9 98 0.1 NW 11 24 6 13 - - 0.0
24/10:00am 7.7 5.0 7.4 98 0.1 NW 11 17 6 9 - - 0.0
24/09:30am 7.3 4.1 7.0 98 0.1 NW 13 26 7 14 - - 0.0
24/09:00am 6.8 3.5 6.5 98 0.1 NW 13 20 7 11 - - 8.2
24/08:30am 6.6 3.3 6.3 98 0.1 NW 13 22 7 12 - - 8.2
24/08:00am 6.5 2.8 6.2 98 0.1 NW 15 24 8 13 - - 8.2
24/07:30am 6.5 3.2 6.2 98 0.1 NW 13 24 7 13 - - 8.2
24/07:00am 6.7 3.8 6.4 98 0.1 NW 11 22 6 12 - - 8.2
24/06:30am 7.1 4.3 6.8 98 0.1 WNW 11 17 6 9 - - 8.2
24/06:00am 7.0 4.1 6.7 98 0.1 WNW 11 20 6 11 - - 8.2
24/05:30am 7.0 4.1 6.7 98 0.1 WNW 11 17 6 9 - - 8.2
24/05:00am 7.0 3.8 6.7 98 0.1 NW 13 22 7 12 - - 8.2
24/04:30am 7.5 4.4 7.2 98 0.1 WNW 13 22 7 12 - - 8.2
24/04:00am 7.8 5.5 7.5 98 0.1 WNW 9 17 5 9 - - 8.2
24/03:30am 7.6 5.3 7.3 98 0.1 WNW 9 19 5 10 - - 8.0
24/03:00am 7.5 4.4 7.2 98 0.1 WNW 13 24 7 13 - - 8.0
24/02:30am 7.8 5.5 7.5 98 0.1 WNW 9 17 5 9 - - 8.0
24/02:00am 8.0 5.4 7.7 98 0.1 WNW 11 20 6 11 - - 8.0
24/01:30am 7.9 6.0 7.6 98 0.1 W 7 19 4 10 - - 8.0
24/01:00am 8.0 5.8 7.7 98 0.1 W 9 19 5 10 - - 8.0
24/12:30am 8.0 5.8 7.7 98 0.1 W 9 19 5 10 - - 8.0
24/12:00am 8.0 6.1 7.7 98 0.1 W 7 17 4 9 - - 8.0
 
Date/Time
CST
Temp
°C
App
Temp
°C
Dew
Point
°C
Rel
Hum
%
Delta-T
°C
Wind Press
QNH
hPa
Press
MSL
hPa
Rain since
9am
mm
Dir  Spd
km/h
Gust
km/h
Spd
kts
Gust
kts
23/11:30pm 8.1 5.9 7.8 98 0.1 W 9 17 5 9 - - 8.0
23/11:00pm 8.1 5.9 7.8 98 0.1 W 9 17 5 9 - - 8.0
23/10:30pm 8.1 5.9 7.8 98 0.1 W 9 19 5 10 - - 8.0
23/10:00pm 8.3 6.1 8.0 98 0.1 WNW 9 19 5 10 - - 8.0
23/09:30pm 8.3 6.1 8.0 98 0.1 WNW 9 20 5 11 - - 8.0
23/09:00pm 8.4 6.6 8.1 98 0.1 W 7 13 4 7 - - 8.0
23/08:30pm 8.3 6.5 8.0 98 0.1 W 7 15 4 8 - - 8.0
23/08:00pm 8.4 6.3 8.1 98 0.1 W 9 19 5 10 - - 8.0
23/07:30pm 8.4 5.9 8.1 98 0.1 W 11 20 6 11 - - 8.0
23/07:00pm 8.3 5.8 8.0 98 0.1 W 11 24 6 13 - - 7.8
23/06:30pm 8.3 5.8 8.0 98 0.1 W 11 20 6 11 - - 7.8
23/06:00pm 8.2 6.0 7.9 98 0.1 W 9 20 5 11 - - 7.8
23/05:30pm 8.2 5.6 7.9 98 0.1 W 11 20 6 11 - - 7.8
23/05:00pm 8.7 5.9 8.4 98 0.2 W 13 24 7 13 - - 7.6
23/04:30pm 8.7 5.9 8.4 98 0.2 W 13 20 7 11 - - 7.6
23/04:00pm 8.4 5.5 8.1 98 0.1 W 13 24 7 13 - - 7.6
23/03:30pm 8.6 5.7 8.3 98 0.2 W 13 24 7 13 - - 6.6
23/03:00pm 9.0 5.9 8.7 98 0.2 W 15 32 8 17 - - 3.6
23/02:30pm 9.1 6.4 8.8 98 0.2 W 13 26 7 14 - - 3.4
23/02:00pm 9.2 5.4 8.9 98 0.2 WNW 19 35 10 19 - - 1.6
23/01:30pm 8.5 5.2 8.2 98 0.1 W 15 28 8 15 - - 1.6
23/01:00pm 7.9 4.5 7.6 98 0.1 WNW 15 30 8 16 - - 1.6
23/12:30pm 8.9 5.0 8.6 98 0.2 WNW 19 33 10 18 - - 0.4
23/12:00pm 9.0 5.1 8.7 98 0.2 WNW 19 39 10 21 - - 0.0
23/11:30am 8.9 5.0 8.6 98 0.2 WNW 19 41 10 22 - - 0.0
23/11:00am 9.0 4.9 8.7 98 0.2 WNW 20 35 11 19 - - 0.0
23/10:30am 8.8 5.2 8.5 98 0.2 WNW 17 33 9 18 - - 0.0
23/10:00am 8.5 3.9 8.2 98 0.1 WNW 22 37 12 20 - - 0.0
23/09:30am 8.3 3.7 8.0 98 0.1 WNW 22 39 12 21 - - 0.0
23/09:00am 8.4 4.4 8.1 98 0.1 WNW 19 37 10 20 - - 0.0
23/08:30am 8.3 4.2 8.0 98 0.1 WNW 19 39 10 21 - - 0.0
23/08:00am 8.3 4.0 8.0 98 0.1 WNW 20 39 11 21 - - 0.0
23/07:30am 8.4 4.2 8.1 98 0.1 WNW 20 35 11 19 - - 0.0
23/07:00am 8.4 4.2 8.1 98 0.1 WNW 20 33 11 18 - - 0.0
23/06:30am 8.7 5.1 8.4 98 0.2 WNW 17 30 9 16 - - 0.0
23/06:00am 8.6 4.6 8.3 98 0.2 WNW 19 35 10 19 - - 0.0
23/05:30am 8.7 4.7 8.4 98 0.2 WNW 19 39 10 21 - - 0.0
23/05:00am 8.8 4.3 8.5 98 0.2 WNW 22 39 12 21 - - 0.0
23/04:30am 8.7 4.5 8.4 98 0.2 WNW 20 41 11 22 - - 0.0
23/04:00am 8.6 4.6 8.3 98 0.2 WNW 19 35 10 19 - - 0.0
23/03:30am 8.6 4.4 8.3 98 0.2 WNW 20 33 11 18 - - 0.0
23/03:00am 8.7 4.5 8.4 98 0.2 WNW 20 35 11 19 - - 0.0
23/02:30am 8.3 4.6 8.0 98 0.1 WNW 17 28 9 15 - - 0.0
23/02:00am 8.3 4.0 8.0 98 0.1 WNW 20 35 11 19 - - 0.0
23/01:30am 8.4 4.3 8.0 97 0.2 WNW 19 33 10 18 - - 0.0
23/01:00am 8.5 4.8 8.1 97 0.2 WNW 17 35 9 19 - - 0.0
23/12:30am 8.4 4.7 7.8 96 0.3 WNW 17 28 9 15 - - 0.0
23/12:00am 8.1 4.2 6.9 92 0.6 WNW 17 26 9 14 - - 0.0
 
Date/Time
CST
Temp
°C
App
Temp
°C
Dew
Point
°C
Rel
Hum
%
Delta-T
°C
Wind Press
QNH
hPa
Press
MSL
hPa
Rain since
9am
mm
Dir  Spd
km/h
Gust
km/h
Spd
kts
Gust
kts
22/11:30pm 8.1 4.0 6.2 88 0.9 WNW 17 26 9 14 - - 0.0
22/11:00pm 8.3 4.4 5.4 82 1.4 WNW 15 24 8 13 - - 0.0
22/10:30pm 8.6 4.6 5.0 78 1.7 WNW 15 24 8 13 - - 0.0
22/10:00pm 8.8 3.9 4.0 72 2.2 WNW 19 30 10 16 - - 0.0
22/09:30pm 9.1 4.1 3.5 68 2.5 WNW 19 32 10 17 - - 0.0
22/09:00pm 9.2 3.8 2.5 63 3.0 WNW 20 32 11 17 - - 0.0
22/08:30pm 9.6 3.7 2.0 59 3.3 WNW 22 35 12 19 - - 0.0
22/08:00pm 10.1 3.9 2.0 57 3.6 NW 24 41 13 22 - - 0.0
22/07:30pm 10.1 4.3 2.2 58 3.5 WNW 22 37 12 20 - - 0.0
22/07:00pm 10.4 5.6 2.5 58 3.5 NW 17 30 9 16 - - 0.0

Latest Capital City Observations: Canberra | Sydney | Melbourne | Brisbane | Adelaide | Perth | Hobart | Darwin

Other Formats:

Comma delimited format used in spreadsheet applications
http://www.bom.gov.au/fwo/IDS60901/IDS60901.95678.axf

JavaScript Object Notation format (JSON) in row-major order
http://www.bom.gov.au/fwo/IDS60901/IDS60901.95678.json